sensor_id;sensor_type;location;lat;lon;timestamp;P1;durP1;ratioP1;P2;durP2;ratioP2
16478;SDS011;8350;52.316;10.530;2023-07-13T00:02:24;3.47;;;2.75;;
16478;SDS011;8350;52.316;10.530;2023-07-13T00:04:51;3.40;;;2.45;;
16478;SDS011;8350;52.316;10.530;2023-07-13T00:07:18;3.63;;;2.60;;
16478;SDS011;8350;52.316;10.530;2023-07-13T00:09:47;4.30;;;2.40;;
16478;SDS011;8350;52.316;10.530;2023-07-13T00:12:24;5.43;;;2.60;;
16478;SDS011;8350;52.316;10.530;2023-07-13T00:14:55;3.25;;;2.70;;
16478;SDS011;8350;52.316;10.530;2023-07-13T00:17:22;3.97;;;2.65;;
16478;SDS011;8350;52.316;10.530;2023-07-13T00:19:50;2.50;;;2.30;;
16478;SDS011;8350;52.316;10.530;2023-07-13T00:22:18;2.33;;;2.13;;
16478;SDS011;8350;52.316;10.530;2023-07-13T00:24:50;3.83;;;2.50;;
16478;SDS011;8350;52.316;10.530;2023-07-13T00:27:17;4.47;;;2.40;;
16478;SDS011;8350;52.316;10.530;2023-07-13T00:29:50;2.97;;;2.28;;
16478;SDS011;8350;52.316;10.530;2023-07-13T00:32:18;2.92;;;2.47;;
16478;SDS011;8350;52.316;10.530;2023-07-13T00:34:44;4.22;;;2.85;;
16478;SDS011;8350;52.316;10.530;2023-07-13T00:37:12;3.08;;;2.58;;
16478;SDS011;8350;52.316;10.530;2023-07-13T00:39:39;2.42;;;2.22;;
16478;SDS011;8350;52.316;10.530;2023-07-13T00:42:10;4.20;;;2.50;;
16478;SDS011;8350;52.316;10.530;2023-07-13T00:44:37;4.18;;;2.50;;
16478;SDS011;8350;52.316;10.530;2023-07-13T00:47:05;2.95;;;2.63;;
16478;SDS011;8350;52.316;10.530;2023-07-13T00:49:33;3.30;;;2.75;;
16478;SDS011;8350;52.316;10.530;2023-07-13T00:52:04;2.97;;;2.30;;
16478;SDS011;8350;52.316;10.530;2023-07-13T00:54:34;3.45;;;2.70;;
16478;SDS011;8350;52.316;10.530;2023-07-13T00:57:05;3.15;;;2.90;;
16478;SDS011;8350;52.316;10.530;2023-07-13T00:59:37;3.70;;;3.08;;
16478;SDS011;8350;52.316;10.530;2023-07-13T01:02:10;4.60;;;3.08;;
16478;SDS011;8350;52.316;10.530;2023-07-13T01:04:37;3.17;;;2.60;;
16478;SDS011;8350;52.316;10.530;2023-07-13T01:07:06;3.03;;;2.63;;
16478;SDS011;8350;52.316;10.530;2023-07-13T01:09:36;2.97;;;2.63;;
16478;SDS011;8350;52.316;10.530;2023-07-13T01:12:07;2.92;;;2.60;;
16478;SDS011;8350;52.316;10.530;2023-07-13T01:14:34;3.38;;;2.95;;
16478;SDS011;8350;52.316;10.530;2023-07-13T01:17:03;4.10;;;2.95;;
16478;SDS011;8350;52.316;10.530;2023-07-13T01:19:32;3.67;;;3.05;;
16478;SDS011;8350;52.316;10.530;2023-07-13T01:22:03;3.33;;;3.00;;
16478;SDS011;8350;52.316;10.530;2023-07-13T01:24:33;4.05;;;3.20;;
16478;SDS011;8350;52.316;10.530;2023-07-13T01:27:01;2.97;;;2.78;;
16478;SDS011;8350;52.316;10.530;2023-07-13T01:29:29;3.33;;;2.78;;
16478;SDS011;8350;52.316;10.530;2023-07-13T01:31:57;3.63;;;3.10;;
16478;SDS011;8350;52.316;10.530;2023-07-13T01:34:25;4.70;;;3.08;;
16478;SDS011;8350;52.316;10.530;2023-07-13T01:36:52;5.07;;;3.13;;
16478;SDS011;8350;52.316;10.530;2023-07-13T01:39:26;3.72;;;2.88;;
16478;SDS011;8350;52.316;10.530;2023-07-13T01:41:53;3.35;;;2.60;;
16478;SDS011;8350;52.316;10.530;2023-07-13T01:44:20;3.45;;;2.60;;
16478;SDS011;8350;52.316;10.530;2023-07-13T01:46:47;2.97;;;2.63;;
16478;SDS011;8350;52.316;10.530;2023-07-13T01:49:14;3.17;;;2.75;;
16478;SDS011;8350;52.316;10.530;2023-07-13T01:51:41;3.97;;;2.55;;
16478;SDS011;8350;52.316;10.530;2023-07-13T01:54:08;3.20;;;2.80;;
16478;SDS011;8350;52.316;10.530;2023-07-13T01:56:36;4.35;;;3.03;;
16478;SDS011;8350;52.316;10.530;2023-07-13T01:59:07;3.95;;;3.28;;
16478;SDS011;8350;52.316;10.530;2023-07-13T02:01:34;3.65;;;2.90;;
16478;SDS011;8350;52.316;10.530;2023-07-13T02:04:01;4.60;;;2.72;;
16478;SDS011;8350;52.316;10.530;2023-07-13T02:06:28;4.68;;;3.33;;
16478;SDS011;8350;52.316;10.530;2023-07-13T02:08:55;3.42;;;3.03;;
16478;SDS011;8350;52.316;10.530;2023-07-13T02:11:22;3.97;;;3.28;;
16478;SDS011;8350;52.316;10.530;2023-07-13T02:13:58;2.95;;;2.72;;
16478;SDS011;8350;52.316;10.530;2023-07-13T02:16:25;3.85;;;3.10;;
16478;SDS011;8350;52.316;10.530;2023-07-13T02:18:52;4.13;;;3.08;;
16478;SDS011;8350;52.316;10.530;2023-07-13T02:21:20;3.95;;;3.40;;
16478;SDS011;8350;52.316;10.530;2023-07-13T02:23:48;4.03;;;3.13;;
16478;SDS011;8350;52.316;10.530;2023-07-13T02:26:15;5.70;;;3.03;;
16478;SDS011;8350;52.316;10.530;2023-07-13T02:28:42;4.47;;;3.40;;
16478;SDS011;8350;52.316;10.530;2023-07-13T02:31:12;3.42;;;3.10;;
16478;SDS011;8350;52.316;10.530;2023-07-13T02:33:41;4.10;;;3.72;;
16478;SDS011;8350;52.316;10.530;2023-07-13T02:36:08;4.60;;;3.22;;
16478;SDS011;8350;52.316;10.530;2023-07-13T02:38:35;4.22;;;3.70;;
16478;SDS011;8350;52.316;10.530;2023-07-13T02:41:02;4.15;;;3.70;;
16478;SDS011;8350;52.316;10.530;2023-07-13T02:43:30;3.55;;;3.20;;
16478;SDS011;8350;52.316;10.530;2023-07-13T02:46:00;4.18;;;3.25;;
16478;SDS011;8350;52.316;10.530;2023-07-13T02:48:33;4.05;;;3.63;;
16478;SDS011;8350;52.316;10.530;2023-07-13T02:51:00;4.45;;;3.53;;
16478;SDS011;8350;52.316;10.530;2023-07-13T02:53:27;5.28;;;3.13;;
16478;SDS011;8350;52.316;10.530;2023-07-13T02:55:54;4.93;;;3.25;;
16478;SDS011;8350;52.316;10.530;2023-07-13T02:58:21;5.03;;;4.13;;
16478;SDS011;8350;52.316;10.530;2023-07-13T03:00:48;6.25;;;3.78;;
16478;SDS011;8350;52.316;10.530;2023-07-13T03:03:15;4.18;;;3.78;;
16478;SDS011;8350;52.316;10.530;2023-07-13T03:05:44;4.25;;;3.85;;
16478;SDS011;8350;52.316;10.530;2023-07-13T03:08:15;5.10;;;3.75;;
16478;SDS011;8350;52.316;10.530;2023-07-13T03:10:44;5.53;;;3.55;;
16478;SDS011;8350;52.316;10.530;2023-07-13T03:13:11;4.07;;;3.72;;
16478;SDS011;8350;52.316;10.530;2023-07-13T03:15:37;4.40;;;4.07;;
16478;SDS011;8350;52.316;10.530;2023-07-13T03:18:04;5.80;;;4.07;;
16478;SDS011;8350;52.316;10.530;2023-07-13T03:20:32;4.00;;;3.47;;
16478;SDS011;8350;52.316;10.530;2023-07-13T03:23:01;4.50;;;4.05;;
16478;SDS011;8350;52.316;10.530;2023-07-13T03:25:28;5.00;;;4.25;;
16478;SDS011;8350;52.316;10.530;2023-07-13T03:27:55;5.13;;;3.97;;
16478;SDS011;8350;52.316;10.530;2023-07-13T03:30:22;5.07;;;3.97;;
16478;SDS011;8350;52.316;10.530;2023-07-13T03:32:49;5.45;;;3.72;;
16478;SDS011;8350;52.316;10.530;2023-07-13T03:35:16;5.50;;;3.95;;
16478;SDS011;8350;52.316;10.530;2023-07-13T03:37:43;3.78;;;3.47;;
16478;SDS011;8350;52.316;10.530;2023-07-13T03:40:11;5.60;;;4.07;;
16478;SDS011;8350;52.316;10.530;2023-07-13T03:42:39;4.60;;;3.78;;
16478;SDS011;8350;52.316;10.530;2023-07-13T03:45:06;4.75;;;4.10;;
16478;SDS011;8350;52.316;10.530;2023-07-13T03:47:34;7.18;;;3.95;;
16478;SDS011;8350;52.316;10.530;2023-07-13T03:50:01;6.18;;;3.88;;
16478;SDS011;8350;52.316;10.530;2023-07-13T03:52:30;4.68;;;3.50;;
16478;SDS011;8350;52.316;10.530;2023-07-13T03:54:57;4.85;;;3.97;;
16478;SDS011;8350;52.316;10.530;2023-07-13T03:57:26;7.25;;;3.65;;
16478;SDS011;8350;52.316;10.530;2023-07-13T03:59:53;3.92;;;3.47;;
16478;SDS011;8350;52.316;10.530;2023-07-13T04:02:19;6.70;;;3.58;;
16478;SDS011;8350;52.316;10.530;2023-07-13T04:04:46;3.53;;;3.15;;
16478;SDS011;8350;52.316;10.530;2023-07-13T04:07:13;5.47;;;3.58;;
16478;SDS011;8350;52.316;10.530;2023-07-13T04:09:40;4.90;;;3.70;;
16478;SDS011;8350;52.316;10.530;2023-07-13T04:12:07;5.68;;;3.70;;
16478;SDS011;8350;52.316;10.530;2023-07-13T04:14:37;4.70;;;3.33;;
16478;SDS011;8350;52.316;10.530;2023-07-13T04:17:04;3.60;;;3.22;;
16478;SDS011;8350;52.316;10.530;2023-07-13T04:19:31;3.55;;;3.25;;
16478;SDS011;8350;52.316;10.530;2023-07-13T04:21:58;4.80;;;3.80;;
16478;SDS011;8350;52.316;10.530;2023-07-13T04:24:27;5.90;;;3.40;;
16478;SDS011;8350;52.316;10.530;2023-07-13T04:26:56;4.70;;;3.50;;
16478;SDS011;8350;52.316;10.530;2023-07-13T04:29:24;4.30;;;3.17;;
16478;SDS011;8350;52.316;10.530;2023-07-13T04:31:56;6.50;;;3.58;;
16478;SDS011;8350;52.316;10.530;2023-07-13T04:34:23;6.00;;;3.47;;
16478;SDS011;8350;52.316;10.530;2023-07-13T04:36:50;3.38;;;3.00;;
16478;SDS011;8350;52.316;10.530;2023-07-13T04:39:17;3.35;;;3.00;;
16478;SDS011;8350;52.316;10.530;2023-07-13T04:41:44;6.00;;;3.95;;
16478;SDS011;8350;52.316;10.530;2023-07-13T04:44:11;5.10;;;3.25;;
16478;SDS011;8350;52.316;10.530;2023-07-13T04:46:37;6.28;;;3.42;;
16478;SDS011;8350;52.316;10.530;2023-07-13T04:49:06;5.35;;;3.08;;
16478;SDS011;8350;52.316;10.530;2023-07-13T04:51:33;5.30;;;3.80;;
16478;SDS011;8350;52.316;10.530;2023-07-13T04:53:59;6.57;;;3.30;;
16478;SDS011;8350;52.316;10.530;2023-07-13T04:56:26;2.95;;;2.70;;
16478;SDS011;8350;52.316;10.530;2023-07-13T04:58:54;7.55;;;3.00;;
16478;SDS011;8350;52.316;10.530;2023-07-13T05:01:21;3.45;;;2.90;;
16478;SDS011;8350;52.316;10.530;2023-07-13T05:03:48;3.47;;;2.88;;
16478;SDS011;8350;52.316;10.530;2023-07-13T05:06:19;4.82;;;2.97;;
16478;SDS011;8350;52.316;10.530;2023-07-13T05:08:46;4.95;;;2.67;;
16478;SDS011;8350;52.316;10.530;2023-07-13T05:11:13;3.72;;;2.58;;
16478;SDS011;8350;52.316;10.530;2023-07-13T05:13:40;3.85;;;2.40;;
16478;SDS011;8350;52.316;10.530;2023-07-13T05:16:07;6.78;;;2.80;;
16478;SDS011;8350;52.316;10.530;2023-07-13T05:18:34;4.40;;;2.88;;
16478;SDS011;8350;52.316;10.530;2023-07-13T05:21:02;5.53;;;3.00;;
16478;SDS011;8350;52.316;10.530;2023-07-13T05:23:35;3.22;;;2.65;;
16478;SDS011;8350;52.316;10.530;2023-07-13T05:26:06;6.22;;;2.78;;
16478;SDS011;8350;52.316;10.530;2023-07-13T05:28:33;5.82;;;2.92;;
16478;SDS011;8350;52.316;10.530;2023-07-13T05:31:00;4.60;;;2.15;;
16478;SDS011;8350;52.316;10.530;2023-07-13T05:33:27;4.07;;;2.60;;
16478;SDS011;8350;52.316;10.530;2023-07-13T05:35:54;6.63;;;2.63;;
16478;SDS011;8350;52.316;10.530;2023-07-13T05:38:22;6.30;;;2.58;;
16478;SDS011;8350;52.316;10.530;2023-07-13T05:40:50;4.10;;;2.92;;
16478;SDS011;8350;52.316;10.530;2023-07-13T05:43:20;5.40;;;2.63;;
16478;SDS011;8350;52.316;10.530;2023-07-13T05:45:47;5.25;;;2.25;;
16478;SDS011;8350;52.316;10.530;2023-07-13T05:48:14;5.18;;;2.75;;
16478;SDS011;8350;52.316;10.530;2023-07-13T05:50:41;4.93;;;2.70;;
16478;SDS011;8350;52.316;10.530;2023-07-13T05:53:11;4.32;;;2.50;;
16478;SDS011;8350;52.316;10.530;2023-07-13T05:55:40;4.70;;;3.00;;
16478;SDS011;8350;52.316;10.530;2023-07-13T05:58:09;7.35;;;2.55;;
16478;SDS011;8350;52.316;10.530;2023-07-13T06:00:37;5.00;;;2.30;;
16478;SDS011;8350;52.316;10.530;2023-07-13T06:03:04;4.28;;;2.10;;
16478;SDS011;8350;52.316;10.530;2023-07-13T06:05:31;4.55;;;2.60;;
16478;SDS011;8350;52.316;10.530;2023-07-13T06:07:59;3.72;;;2.28;;
16478;SDS011;8350;52.316;10.530;2023-07-13T06:10:26;3.72;;;2.70;;
16478;SDS011;8350;52.316;10.530;2023-07-13T06:12:53;4.32;;;2.47;;
16478;SDS011;8350;52.316;10.530;2023-07-13T06:15:21;4.78;;;2.42;;
16478;SDS011;8350;52.316;10.530;2023-07-13T06:17:51;5.13;;;2.40;;
16478;SDS011;8350;52.316;10.530;2023-07-13T06:20:18;4.30;;;2.28;;
16478;SDS011;8350;52.316;10.530;2023-07-13T06:22:45;3.40;;;2.08;;
16478;SDS011;8350;52.316;10.530;2023-07-13T06:25:21;5.90;;;2.35;;
16478;SDS011;8350;52.316;10.530;2023-07-13T06:27:48;5.38;;;2.53;;
16478;SDS011;8350;52.316;10.530;2023-07-13T06:30:15;4.78;;;2.30;;
16478;SDS011;8350;52.316;10.530;2023-07-13T06:32:43;6.18;;;2.42;;
16478;SDS011;8350;52.316;10.530;2023-07-13T06:35:10;5.13;;;2.22;;
16478;SDS011;8350;52.316;10.530;2023-07-13T06:37:41;4.82;;;2.00;;
16478;SDS011;8350;52.316;10.530;2023-07-13T06:40:08;3.92;;;2.10;;
16478;SDS011;8350;52.316;10.530;2023-07-13T06:42:36;6.00;;;2.53;;
16478;SDS011;8350;52.316;10.530;2023-07-13T06:45:09;5.30;;;2.35;;
16478;SDS011;8350;52.316;10.530;2023-07-13T06:47:36;7.70;;;2.58;;
16478;SDS011;8350;52.316;10.530;2023-07-13T06:50:08;6.35;;;2.05;;
16478;SDS011;8350;52.316;10.530;2023-07-13T06:52:35;4.15;;;1.80;;
16478;SDS011;8350;52.316;10.530;2023-07-13T06:55:02;3.88;;;1.75;;
16478;SDS011;8350;52.316;10.530;2023-07-13T06:57:30;3.83;;;1.77;;
16478;SDS011;8350;52.316;10.530;2023-07-13T06:59:56;6.85;;;2.60;;
16478;SDS011;8350;52.316;10.530;2023-07-13T07:02:23;4.40;;;2.25;;
16478;SDS011;8350;52.316;10.530;2023-07-13T07:04:51;6.20;;;2.63;;
16478;SDS011;8350;52.316;10.530;2023-07-13T07:07:23;7.50;;;2.30;;
16478;SDS011;8350;52.316;10.530;2023-07-13T07:09:50;8.80;;;2.65;;
16478;SDS011;8350;52.316;10.530;2023-07-13T07:12:17;5.78;;;2.33;;
16478;SDS011;8350;52.316;10.530;2023-07-13T07:14:43;5.50;;;2.33;;
16478;SDS011;8350;52.316;10.530;2023-07-13T07:17:11;6.53;;;2.65;;
16478;SDS011;8350;52.316;10.530;2023-07-13T07:19:38;8.35;;;2.85;;
16478;SDS011;8350;52.316;10.530;2023-07-13T07:22:08;8.05;;;2.58;;
16478;SDS011;8350;52.316;10.530;2023-07-13T07:24:36;6.88;;;2.60;;
16478;SDS011;8350;52.316;10.530;2023-07-13T07:27:04;7.47;;;2.53;;
16478;SDS011;8350;52.316;10.530;2023-07-13T07:29:31;6.70;;;2.47;;
16478;SDS011;8350;52.316;10.530;2023-07-13T07:31:58;9.13;;;2.80;;
16478;SDS011;8350;52.316;10.530;2023-07-13T07:34:25;6.13;;;2.55;;
16478;SDS011;8350;52.316;10.530;2023-07-13T07:36:56;4.35;;;2.53;;
16478;SDS011;8350;52.316;10.530;2023-07-13T07:39:25;5.47;;;2.00;;
16478;SDS011;8350;52.316;10.530;2023-07-13T07:41:53;8.05;;;2.50;;
16478;SDS011;8350;52.316;10.530;2023-07-13T07:44:20;3.75;;;1.70;;
16478;SDS011;8350;52.316;10.530;2023-07-13T07:46:47;7.88;;;2.00;;
16478;SDS011;8350;52.316;10.530;2023-07-13T07:49:14;6.35;;;1.77;;
16478;SDS011;8350;52.316;10.530;2023-07-13T07:51:42;5.53;;;1.60;;
16478;SDS011;8350;52.316;10.530;2023-07-13T07:54:08;4.13;;;1.80;;
16478;SDS011;8350;52.316;10.530;2023-07-13T07:56:35;5.13;;;1.73;;
16478;SDS011;8350;52.316;10.530;2023-07-13T07:59:04;5.50;;;2.30;;
16478;SDS011;8350;52.316;10.530;2023-07-13T08:01:30;3.40;;;1.65;;
16478;SDS011;8350;52.316;10.530;2023-07-13T08:03:57;3.63;;;1.50;;
16478;SDS011;8350;52.316;10.530;2023-07-13T08:06:24;5.45;;;1.45;;
16478;SDS011;8350;52.316;10.530;2023-07-13T08:08:51;5.47;;;1.95;;
16478;SDS011;8350;52.316;10.530;2023-07-13T08:11:18;3.13;;;1.60;;
16478;SDS011;8350;52.316;10.530;2023-07-13T08:13:46;5.10;;;1.80;;
16478;SDS011;8350;52.316;10.530;2023-07-13T08:16:15;4.10;;;1.70;;
16478;SDS011;8350;52.316;10.530;2023-07-13T08:18:42;3.88;;;1.65;;
16478;SDS011;8350;52.316;10.530;2023-07-13T08:21:09;4.03;;;1.60;;
16478;SDS011;8350;52.316;10.530;2023-07-13T08:23:36;4.00;;;1.38;;
16478;SDS011;8350;52.316;10.530;2023-07-13T08:26:03;4.65;;;1.30;;
16478;SDS011;8350;52.316;10.530;2023-07-13T08:28:31;5.38;;;1.65;;
16478;SDS011;8350;52.316;10.530;2023-07-13T08:31:11;3.42;;;1.50;;
16478;SDS011;8350;52.316;10.530;2023-07-13T08:33:40;3.67;;;1.55;;
16478;SDS011;8350;52.316;10.530;2023-07-13T08:36:07;3.65;;;1.80;;
16478;SDS011;8350;52.316;10.530;2023-07-13T08:38:34;4.43;;;1.83;;
16478;SDS011;8350;52.316;10.530;2023-07-13T08:41:02;2.97;;;1.58;;
16478;SDS011;8350;52.316;10.530;2023-07-13T08:43:37;5.03;;;1.60;;
16478;SDS011;8350;52.316;10.530;2023-07-13T08:46:05;3.85;;;1.80;;
16478;SDS011;8350;52.316;10.530;2023-07-13T08:48:37;4.45;;;2.00;;
16478;SDS011;8350;52.316;10.530;2023-07-13T08:51:11;3.72;;;1.77;;
16478;SDS011;8350;52.316;10.530;2023-07-13T08:53:48;4.68;;;1.80;;
16478;SDS011;8350;52.316;10.530;2023-07-13T08:56:22;4.05;;;1.58;;
16478;SDS011;8350;52.316;10.530;2023-07-13T08:58:53;3.30;;;1.50;;
16478;SDS011;8350;52.316;10.530;2023-07-13T09:01:24;3.15;;;1.52;;
16478;SDS011;8350;52.316;10.530;2023-07-13T09:03:59;4.65;;;1.80;;
16478;SDS011;8350;52.316;10.530;2023-07-13T09:06:34;4.90;;;1.70;;
16478;SDS011;8350;52.316;10.530;2023-07-13T09:09:07;4.38;;;1.70;;
16478;SDS011;8350;52.316;10.530;2023-07-13T09:11:45;3.60;;;1.63;;
16478;SDS011;8350;52.316;10.530;2023-07-13T09:14:24;4.13;;;1.63;;
16478;SDS011;8350;52.316;10.530;2023-07-13T09:17:10;4.20;;;1.65;;
16478;SDS011;8350;52.316;10.530;2023-07-13T09:19:43;3.75;;;1.60;;
16478;SDS011;8350;52.316;10.530;2023-07-13T09:22:16;1.98;;;1.38;;
16478;SDS011;8350;52.316;10.530;2023-07-13T09:24:55;3.10;;;1.42;;
16478;SDS011;8350;52.316;10.530;2023-07-13T09:27:31;3.92;;;1.92;;
16478;SDS011;8350;52.316;10.530;2023-07-13T09:30:20;3.75;;;2.05;;
16478;SDS011;8350;52.316;10.530;2023-07-13T09:32:53;3.25;;;1.50;;
16478;SDS011;8350;52.316;10.530;2023-07-13T09:35:22;2.72;;;1.45;;
16478;SDS011;8350;52.316;10.530;2023-07-13T09:37:59;2.63;;;1.58;;
16478;SDS011;8350;52.316;10.530;2023-07-13T09:40:40;4.18;;;1.60;;
16478;SDS011;8350;52.316;10.530;2023-07-13T09:43:25;3.58;;;1.58;;
16478;SDS011;8350;52.316;10.530;2023-07-13T09:45:53;1.77;;;1.27;;
16478;SDS011;8350;52.316;10.530;2023-07-13T09:48:21;1.98;;;1.23;;
16478;SDS011;8350;52.316;10.530;2023-07-13T09:50:51;3.33;;;1.33;;
16478;SDS011;8350;52.316;10.530;2023-07-13T09:53:22;3.17;;;1.52;;
16478;SDS011;8350;52.316;10.530;2023-07-13T09:55:49;3.78;;;1.58;;
16478;SDS011;8350;52.316;10.530;2023-07-13T09:58:17;3.50;;;1.35;;
16478;SDS011;8350;52.316;10.530;2023-07-13T10:00:54;3.97;;;1.48;;
16478;SDS011;8350;52.316;10.530;2023-07-13T10:03:25;3.55;;;1.33;;
16478;SDS011;8350;52.316;10.530;2023-07-13T10:05:54;5.57;;;1.60;;
16478;SDS011;8350;52.316;10.530;2023-07-13T10:08:31;2.63;;;1.45;;
16478;SDS011;8350;52.316;10.530;2023-07-13T10:11:08;2.08;;;1.25;;
16478;SDS011;8350;52.316;10.530;2023-07-13T10:13:37;3.53;;;1.83;;
16478;SDS011;8350;52.316;10.530;2023-07-13T10:16:08;3.83;;;1.75;;
16478;SDS011;8350;52.316;10.530;2023-07-13T10:18:39;3.78;;;1.83;;
16478;SDS011;8350;52.316;10.530;2023-07-13T10:21:11;2.85;;;1.40;;
16478;SDS011;8350;52.316;10.530;2023-07-13T10:23:41;3.70;;;1.70;;
16478;SDS011;8350;52.316;10.530;2023-07-13T10:26:15;3.97;;;1.48;;
16478;SDS011;8350;52.316;10.530;2023-07-13T10:28:50;4.28;;;2.00;;
16478;SDS011;8350;52.316;10.530;2023-07-13T10:31:22;3.30;;;1.35;;
16478;SDS011;8350;52.316;10.530;2023-07-13T10:33:49;5.43;;;1.80;;
16478;SDS011;8350;52.316;10.530;2023-07-13T10:36:20;5.43;;;1.58;;
16478;SDS011;8350;52.316;10.530;2023-07-13T10:38:56;2.78;;;1.30;;
16478;SDS011;8350;52.316;10.530;2023-07-13T10:41:25;3.50;;;1.80;;
16478;SDS011;8350;52.316;10.530;2023-07-13T10:43:55;5.10;;;1.90;;
16478;SDS011;8350;52.316;10.530;2023-07-13T10:46:24;2.70;;;1.42;;
16478;SDS011;8350;52.316;10.530;2023-07-13T10:48:54;3.75;;;1.40;;
16478;SDS011;8350;52.316;10.530;2023-07-13T10:51:24;2.55;;;1.65;;
16478;SDS011;8350;52.316;10.530;2023-07-13T10:54:11;4.07;;;1.40;;
16478;SDS011;8350;52.316;10.530;2023-07-13T10:56:43;3.85;;;1.80;;
16478;SDS011;8350;52.316;10.530;2023-07-13T10:59:13;4.32;;;1.50;;
16478;SDS011;8350;52.316;10.530;2023-07-13T11:01:50;4.57;;;2.00;;
16478;SDS011;8350;52.316;10.530;2023-07-13T11:04:22;3.33;;;1.90;;
16478;SDS011;8350;52.316;10.530;2023-07-13T11:06:52;4.07;;;1.67;;
16478;SDS011;8350;52.316;10.530;2023-07-13T11:09:33;3.03;;;1.50;;
16478;SDS011;8350;52.316;10.530;2023-07-13T11:12:07;3.97;;;1.50;;
16478;SDS011;8350;52.316;10.530;2023-07-13T11:14:42;4.05;;;1.70;;
16478;SDS011;8350;52.316;10.530;2023-07-13T11:20:09;2.50;;;1.60;;
16478;SDS011;8350;52.316;10.530;2023-07-13T11:23:06;5.93;;;1.63;;
16478;SDS011;8350;52.316;10.530;2023-07-13T11:26:37;3.40;;;1.83;;
16478;SDS011;8350;52.316;10.530;2023-07-13T11:29:07;3.33;;;1.80;;
16478;SDS011;8350;52.316;10.530;2023-07-13T11:31:36;5.15;;;1.77;;
16478;SDS011;8350;52.316;10.530;2023-07-13T11:34:10;5.53;;;2.00;;
16478;SDS011;8350;52.316;10.530;2023-07-13T11:36:42;4.50;;;1.88;;
16478;SDS011;8350;52.316;10.530;2023-07-13T11:41:57;2.30;;;1.55;;
16478;SDS011;8350;52.316;10.530;2023-07-13T11:44:27;2.88;;;1.65;;
16478;SDS011;8350;52.316;10.530;2023-07-13T11:46:56;3.42;;;1.60;;
16478;SDS011;8350;52.316;10.530;2023-07-13T11:49:26;2.92;;;1.40;;
16478;SDS011;8350;52.316;10.530;2023-07-13T11:51:55;2.20;;;1.63;;
16478;SDS011;8350;52.316;10.530;2023-07-13T11:54:29;2.15;;;1.40;;
16478;SDS011;8350;52.316;10.530;2023-07-13T11:56:59;3.72;;;1.40;;
16478;SDS011;8350;52.316;10.530;2023-07-13T11:59:31;3.92;;;1.40;;
16478;SDS011;8350;52.316;10.530;2023-07-13T12:01:59;4.63;;;1.70;;
16478;SDS011;8350;52.316;10.530;2023-07-13T12:04:29;3.22;;;1.10;;
16478;SDS011;8350;52.316;10.530;2023-07-13T12:07:04;1.85;;;0.88;;
16478;SDS011;8350;52.316;10.530;2023-07-13T12:09:35;3.15;;;1.35;;
16478;SDS011;8350;52.316;10.530;2023-07-13T12:12:10;2.85;;;1.20;;
16478;SDS011;8350;52.316;10.530;2023-07-13T12:14:39;2.60;;;1.33;;
16478;SDS011;8350;52.316;10.530;2023-07-13T12:17:08;2.63;;;1.30;;
16478;SDS011;8350;52.316;10.530;2023-07-13T12:19:41;3.17;;;1.13;;
16478;SDS011;8350;52.316;10.530;2023-07-13T12:22:08;2.78;;;1.33;;
16478;SDS011;8350;52.316;10.530;2023-07-13T12:24:39;3.78;;;1.40;;
16478;SDS011;8350;52.316;10.530;2023-07-13T12:27:15;3.65;;;1.60;;
16478;SDS011;8350;52.316;10.530;2023-07-13T12:29:49;4.63;;;1.40;;
16478;SDS011;8350;52.316;10.530;2023-07-13T12:32:18;2.90;;;1.63;;
16478;SDS011;8350;52.316;10.530;2023-07-13T12:34:52;2.88;;;1.33;;
16478;SDS011;8350;52.316;10.530;2023-07-13T12:37:21;2.10;;;1.40;;
16478;SDS011;8350;52.316;10.530;2023-07-13T12:39:51;3.22;;;1.67;;
16478;SDS011;8350;52.316;10.530;2023-07-13T12:42:33;6.75;;;1.92;;
16478;SDS011;8350;52.316;10.530;2023-07-13T12:45:01;3.28;;;1.30;;
16478;SDS011;8350;52.316;10.530;2023-07-13T12:47:29;1.55;;;1.42;;
16478;SDS011;8350;52.316;10.530;2023-07-13T12:49:57;3.22;;;1.40;;
16478;SDS011;8350;52.316;10.530;2023-07-13T12:52:28;3.33;;;1.30;;
16478;SDS011;8350;52.316;10.530;2023-07-13T12:55:02;2.35;;;1.10;;
16478;SDS011;8350;52.316;10.530;2023-07-13T12:57:39;2.70;;;1.35;;
16478;SDS011;8350;52.316;10.530;2023-07-13T13:02:56;3.00;;;1.60;;
16478;SDS011;8350;52.316;10.530;2023-07-13T13:05:27;2.17;;;1.55;;
16478;SDS011;8350;52.316;10.530;2023-07-13T13:07:55;2.65;;;1.27;;
16478;SDS011;8350;52.316;10.530;2023-07-13T13:10:25;3.92;;;1.80;;
16478;SDS011;8350;52.316;10.530;2023-07-13T13:12:58;2.22;;;1.60;;
16478;SDS011;8350;52.316;10.530;2023-07-13T13:15:25;1.95;;;1.50;;
16478;SDS011;8350;52.316;10.530;2023-07-13T13:17:52;4.10;;;1.83;;
16478;SDS011;8350;52.316;10.530;2023-07-13T13:20:20;4.05;;;1.42;;
16478;SDS011;8350;52.316;10.530;2023-07-13T13:22:51;2.15;;;1.45;;
16478;SDS011;8350;52.316;10.530;2023-07-13T13:25:19;2.72;;;1.45;;
16478;SDS011;8350;52.316;10.530;2023-07-13T13:27:48;2.22;;;1.40;;
16478;SDS011;8350;52.316;10.530;2023-07-13T13:30:17;3.67;;;1.30;;
16478;SDS011;8350;52.316;10.530;2023-07-13T13:32:46;2.88;;;1.40;;
16478;SDS011;8350;52.316;10.530;2023-07-13T13:35:17;2.33;;;1.35;;
16478;SDS011;8350;52.316;10.530;2023-07-13T13:37:45;3.28;;;1.42;;
16478;SDS011;8350;52.316;10.530;2023-07-13T13:40:16;3.38;;;1.92;;
16478;SDS011;8350;52.316;10.530;2023-07-13T13:42:45;3.28;;;1.65;;
16478;SDS011;8350;52.316;10.530;2023-07-13T13:45:13;2.95;;;1.60;;
16478;SDS011;8350;52.316;10.530;2023-07-13T13:47:42;3.35;;;1.80;;
16478;SDS011;8350;52.316;10.530;2023-07-13T13:50:13;3.55;;;1.33;;
16478;SDS011;8350;52.316;10.530;2023-07-13T13:52:43;2.47;;;1.58;;
16478;SDS011;8350;52.316;10.530;2023-07-13T13:55:13;2.08;;;1.40;;
16478;SDS011;8350;52.316;10.530;2023-07-13T13:57:41;3.30;;;1.50;;
16478;SDS011;8350;52.316;10.530;2023-07-13T14:00:08;2.30;;;1.60;;
16478;SDS011;8350;52.316;10.530;2023-07-13T14:02:41;6.05;;;1.55;;
16478;SDS011;8350;52.316;10.530;2023-07-13T14:05:12;3.53;;;1.40;;
16478;SDS011;8350;52.316;10.530;2023-07-13T14:07:43;2.50;;;1.55;;
16478;SDS011;8350;52.316;10.530;2023-07-13T14:10:10;2.80;;;1.08;;
16478;SDS011;8350;52.316;10.530;2023-07-13T14:12:40;2.03;;;1.73;;
16478;SDS011;8350;52.316;10.530;2023-07-13T14:15:13;2.50;;;1.52;;
16478;SDS011;8350;52.316;10.530;2023-07-13T14:17:45;2.75;;;1.40;;
16478;SDS011;8350;52.316;10.530;2023-07-13T14:20:14;4.40;;;2.25;;
16478;SDS011;8350;52.316;10.530;2023-07-13T14:22:41;6.75;;;2.45;;
16478;SDS011;8350;52.316;10.530;2023-07-13T14:25:10;6.70;;;2.80;;
16478;SDS011;8350;52.316;10.530;2023-07-13T14:27:37;4.97;;;2.80;;
16478;SDS011;8350;52.316;10.530;2023-07-13T14:30:11;5.47;;;2.70;;
16478;SDS011;8350;52.316;10.530;2023-07-13T14:32:40;6.80;;;2.63;;
16478;SDS011;8350;52.316;10.530;2023-07-13T14:35:10;4.55;;;2.28;;
16478;SDS011;8350;52.316;10.530;2023-07-13T14:37:37;3.70;;;2.70;;
16478;SDS011;8350;52.316;10.530;2023-07-13T14:40:12;3.58;;;2.40;;
16478;SDS011;8350;52.316;10.530;2023-07-13T14:42:40;5.28;;;3.00;;
16478;SDS011;8350;52.316;10.530;2023-07-13T14:45:12;4.95;;;2.95;;
16478;SDS011;8350;52.316;10.530;2023-07-13T14:47:40;3.40;;;2.90;;
16478;SDS011;8350;52.316;10.530;2023-07-13T14:50:13;5.60;;;3.25;;
16478;SDS011;8350;52.316;10.530;2023-07-13T14:52:42;5.47;;;2.70;;
16478;SDS011;8350;52.316;10.530;2023-07-13T14:55:10;3.15;;;2.70;;
16478;SDS011;8350;52.316;10.530;2023-07-13T14:57:38;3.88;;;2.70;;
16478;SDS011;8350;52.316;10.530;2023-07-13T15:00:07;2.85;;;2.22;;
16478;SDS011;8350;52.316;10.530;2023-07-13T15:02:43;4.97;;;2.80;;
16478;SDS011;8350;52.316;10.530;2023-07-13T15:05:15;3.03;;;2.40;;
16478;SDS011;8350;52.316;10.530;2023-07-13T15:07:47;4.30;;;2.72;;
16478;SDS011;8350;52.316;10.530;2023-07-13T15:10:15;3.17;;;2.85;;
16478;SDS011;8350;52.316;10.530;2023-07-13T15:12:44;3.60;;;2.60;;